createdAt,value
2022-10-18T00:01:07.901Z,7.00
2022-10-18T00:03:36.614Z,6.35
2022-10-18T00:06:03.940Z,6.70
2022-10-18T00:08:34.576Z,7.70
2022-10-18T00:11:05.957Z,6.33
2022-10-18T00:13:32.937Z,5.83
2022-10-18T00:16:05.768Z,6.87
2022-10-18T00:18:32.710Z,6.85
2022-10-18T00:21:09.831Z,7.00
2022-10-18T00:23:37.099Z,6.40
2022-10-18T00:26:30.198Z,5.25
2022-10-18T00:29:01.956Z,4.97
2022-10-18T00:31:38.707Z,6.70
2022-10-18T00:34:12.608Z,5.40
2022-10-18T00:36:40.140Z,5.93
2022-10-18T00:39:09.416Z,7.47
2022-10-18T00:41:38.098Z,7.33
2022-10-18T00:44:13.806Z,7.03
2022-10-18T00:46:45.777Z,6.60
2022-10-18T00:49:44.853Z,6.00
2022-10-18T00:52:43.622Z,5.23
2022-10-18T00:55:11.451Z,7.38
2022-10-18T00:57:42.589Z,7.50
2022-10-18T01:00:11.429Z,8.77
2022-10-18T01:02:42.176Z,6.70
2022-10-18T01:05:16.819Z,8.40
2022-10-18T01:08:32.508Z,6.07
2022-10-18T01:11:50.471Z,6.30
2022-10-18T01:14:43.536Z,7.70
2022-10-18T01:17:36.041Z,9.25
2022-10-18T01:20:55.969Z,7.07
2022-10-18T01:23:57.535Z,6.23
2022-10-18T01:27:15.814Z,7.20
2022-10-18T01:30:26.357Z,6.87
2022-10-18T01:33:01.180Z,7.83
2022-10-18T01:35:39.597Z,9.63
2022-10-18T01:38:17.032Z,9.90
2022-10-18T01:40:49.002Z,8.80
2022-10-18T01:43:19.457Z,9.93
2022-10-18T01:45:47.349Z,9.70
2022-10-18T01:48:16.095Z,8.63
2022-10-18T01:50:43.500Z,10.07
2022-10-18T01:53:28.221Z,10.68
2022-10-18T01:56:18.023Z,11.68
2022-10-18T01:59:17.432Z,11.23
2022-10-18T02:02:32.701Z,10.77
2022-10-18T02:05:57.958Z,11.50
2022-10-18T02:08:55.358Z,12.20
2022-10-18T02:11:25.417Z,13.20
2022-10-18T02:14:00.454Z,13.02
2022-10-18T02:16:41.312Z,9.82
2022-10-18T02:19:17.211Z,10.75
2022-10-18T02:21:48.375Z,10.63
2022-10-18T02:24:18.165Z,10.48
2022-10-18T02:26:45.317Z,13.65
2022-10-18T02:29:13.797Z,9.50
2022-10-18T02:31:55.530Z,6.57
2022-10-18T02:34:44.141Z,13.55
2022-10-18T02:37:13.801Z,12.48
2022-10-18T02:39:50.678Z,10.60
2022-10-18T02:42:17.945Z,14.27
2022-10-18T02:44:45.959Z,14.95
2022-10-18T02:47:13.103Z,14.20
2022-10-18T02:49:40.454Z,10.77
2022-10-18T02:52:07.443Z,14.77
2022-10-18T02:54:35.323Z,15.00
2022-10-18T02:57:03.348Z,14.43
2022-10-18T02:59:30.502Z,11.13
2022-10-18T03:01:57.478Z,11.45
2022-10-18T03:04:25.078Z,15.10
2022-10-18T03:06:52.063Z,15.80
2022-10-18T03:09:19.048Z,16.52
2022-10-18T03:11:54.570Z,15.85
2022-10-18T03:14:22.228Z,15.57
2022-10-18T03:16:49.651Z,14.52
2022-10-18T03:19:16.670Z,16.60
2022-10-18T03:21:43.700Z,16.10
2022-10-18T03:24:10.912Z,15.27
2022-10-18T03:26:37.845Z,16.58
2022-10-18T03:29:04.889Z,9.63
2022-10-18T03:31:32.286Z,11.80
2022-10-18T03:33:59.223Z,16.33
2022-10-18T03:36:26.477Z,11.55
2022-10-18T03:38:53.520Z,15.60
2022-10-18T03:41:20.851Z,16.67
2022-10-18T03:43:47.953Z,14.90
2022-10-18T03:46:14.896Z,12.25
2022-10-18T03:48:41.843Z,8.40
2022-10-18T03:51:08.797Z,14.77
2022-10-18T03:53:36.911Z,15.57
2022-10-18T03:56:03.897Z,17.03
2022-10-18T03:58:30.945Z,19.40
2022-10-18T04:00:57.911Z,19.50
2022-10-18T04:03:24.917Z,19.45
2022-10-18T04:05:52.000Z,18.33
2022-10-18T04:08:19.562Z,18.00
2022-10-18T04:10:46.996Z,19.63
2022-10-18T04:13:14.071Z,15.30
2022-10-18T04:15:41.385Z,19.43
2022-10-18T04:18:08.371Z,19.60
2022-10-18T04:20:35.575Z,21.52
2022-10-18T04:23:02.596Z,22.60
2022-10-18T04:25:29.579Z,23.77
2022-10-18T04:27:57.050Z,23.15
2022-10-18T04:30:23.991Z,22.23
2022-10-18T04:32:50.951Z,20.73
2022-10-18T04:35:18.266Z,19.17
2022-10-18T04:37:45.238Z,21.30
2022-10-18T04:40:13.008Z,22.33
2022-10-18T04:42:39.913Z,21.55
2022-10-18T04:45:11.111Z,22.75
2022-10-18T04:47:38.314Z,20.93
2022-10-18T04:50:06.101Z,23.38
2022-10-18T04:52:33.071Z,19.33
2022-10-18T04:54:59.999Z,19.23
2022-10-18T04:57:39.988Z,17.52
2022-10-18T05:00:07.689Z,11.35
2022-10-18T05:02:34.931Z,20.30
2022-10-18T05:05:02.207Z,21.77
2022-10-18T05:07:29.254Z,20.88
2022-10-18T05:09:56.309Z,20.40
2022-10-18T05:12:23.337Z,21.07
2022-10-18T05:14:50.316Z,25.13
2022-10-18T05:17:17.293Z,25.23
2022-10-18T05:19:44.281Z,22.90
2022-10-18T05:22:11.225Z,21.83
2022-10-18T05:24:38.441Z,20.20
2022-10-18T05:27:05.558Z,17.80
2022-10-18T05:29:32.629Z,13.10
2022-10-18T05:31:59.613Z,18.05
2022-10-18T05:34:27.305Z,21.27
2022-10-18T05:36:54.301Z,21.80
2022-10-18T05:39:21.496Z,21.13
2022-10-18T05:41:48.448Z,23.03
2022-10-18T05:44:15.475Z,23.97
2022-10-18T05:46:42.462Z,20.77
2022-10-18T05:49:12.870Z,20.17
2022-10-18T05:51:40.343Z,23.93
2022-10-18T05:54:07.346Z,23.50
2022-10-18T05:56:34.380Z,20.53
2022-10-18T05:59:02.955Z,20.33
2022-10-18T06:01:29.869Z,10.85
2022-10-18T06:03:56.902Z,23.40
2022-10-18T06:06:23.804Z,24.17
2022-10-18T06:08:50.741Z,19.83
2022-10-18T06:11:22.929Z,13.77
2022-10-18T06:13:52.164Z,19.10
2022-10-18T06:16:22.627Z,16.53
2022-10-18T06:18:53.275Z,18.33
2022-10-18T06:21:21.440Z,14.77
2022-10-18T06:23:58.227Z,18.07
2022-10-18T06:26:27.864Z,20.30
2022-10-18T06:28:54.848Z,17.33
2022-10-18T06:31:21.830Z,18.35
2022-10-18T06:33:49.233Z,18.37
2022-10-18T06:36:21.221Z,18.50
2022-10-18T06:38:48.298Z,13.60
2022-10-18T06:41:15.558Z,18.53
2022-10-18T06:43:43.767Z,17.57
2022-10-18T06:46:10.754Z,9.63
2022-10-18T06:48:39.698Z,12.47
2022-10-18T06:51:08.763Z,19.87
2022-10-18T06:53:44.018Z,19.33
2022-10-18T06:56:15.905Z,17.53
2022-10-18T06:58:42.883Z,19.57
2022-10-18T07:01:16.384Z,15.73
2022-10-18T07:03:47.881Z,17.00
2022-10-18T07:06:18.265Z,20.93
2022-10-18T07:08:46.710Z,20.10
2022-10-18T07:11:26.888Z,22.70
2022-10-18T07:14:00.798Z,24.58
2022-10-18T07:16:27.900Z,22.90
2022-10-18T07:18:54.885Z,22.43
2022-10-18T07:21:26.223Z,21.87
2022-10-18T07:23:59.660Z,21.27
2022-10-18T07:26:33.252Z,19.40
2022-10-18T07:29:11.602Z,21.67
2022-10-18T07:31:39.255Z,18.37
2022-10-18T07:34:08.994Z,17.60
2022-10-18T07:36:36.098Z,16.40
2022-10-18T07:39:04.074Z,19.27
2022-10-18T07:41:33.495Z,21.37
2022-10-18T07:44:03.821Z,20.17
2022-10-18T07:46:31.182Z,12.80
2022-10-18T07:48:59.498Z,17.33
2022-10-18T07:51:29.172Z,12.63
2022-10-18T07:53:56.265Z,14.52
2022-10-18T07:56:23.294Z,18.50
2022-10-18T07:58:57.127Z,17.42
2022-10-18T08:01:25.482Z,13.03
2022-10-18T08:03:53.819Z,16.75
2022-10-18T08:06:32.948Z,12.98
2022-10-18T08:09:00.098Z,11.77
2022-10-18T08:11:27.237Z,15.82
2022-10-18T08:13:54.748Z,16.98
2022-10-18T08:16:28.859Z,17.30
2022-10-18T08:18:58.768Z,18.00
2022-10-18T08:21:26.644Z,9.05
2022-10-18T08:23:53.914Z,14.67
2022-10-18T08:26:23.514Z,19.33
2022-10-18T08:29:10.345Z,22.35
2022-10-18T08:31:38.348Z,18.00
2022-10-18T08:34:05.261Z,18.10
2022-10-18T08:36:32.312Z,19.57
2022-10-18T08:38:59.376Z,20.43
2022-10-18T08:41:54.516Z,18.85
2022-10-18T08:44:28.264Z,20.33
2022-10-18T08:47:10.441Z,24.07
2022-10-18T08:49:58.095Z,19.48
2022-10-18T08:53:05.914Z,18.92
2022-10-18T08:55:52.566Z,34.95
2022-10-18T08:58:31.625Z,25.07
2022-10-18T09:01:32.663Z,17.67
2022-10-18T09:04:40.750Z,25.17
2022-10-18T09:07:32.805Z,23.00
2022-10-18T09:10:37.373Z,20.47
2022-10-18T09:13:41.524Z,19.63
2022-10-18T09:16:29.024Z,17.07
2022-10-18T09:19:42.195Z,17.47
2022-10-18T09:22:19.191Z,16.27
2022-10-18T09:25:18.173Z,15.93
2022-10-18T09:28:10.927Z,16.23
2022-10-18T09:31:18.535Z,15.68
2022-10-18T09:34:01.639Z,17.85
2022-10-18T09:36:37.720Z,17.58
2022-10-18T09:39:23.662Z,18.00
2022-10-18T09:42:00.087Z,19.77
2022-10-18T09:44:44.685Z,18.37
2022-10-18T09:47:45.410Z,18.73
2022-10-18T09:50:43.881Z,19.70
2022-10-18T09:53:50.893Z,18.87
2022-10-18T09:59:46.785Z,16.77
2022-10-18T10:02:22.937Z,17.43
2022-10-18T10:04:52.181Z,13.30
2022-10-18T10:07:28.612Z,15.60
2022-10-18T10:10:27.693Z,15.20
2022-10-18T10:13:17.701Z,15.13
2022-10-18T10:16:00.250Z,14.53
2022-10-18T10:18:35.657Z,14.70
2022-10-18T10:21:13.301Z,16.63
2022-10-18T10:24:00.982Z,15.27
2022-10-18T10:26:34.688Z,14.38
2022-10-18T10:29:01.869Z,14.63
2022-10-18T10:31:31.818Z,16.57
2022-10-18T10:34:14.754Z,13.50
2022-10-18T10:36:54.877Z,16.05
2022-10-18T10:39:27.116Z,15.38
2022-10-18T10:42:00.621Z,18.92
2022-10-18T10:44:36.056Z,15.60
2022-10-18T10:47:05.526Z,16.50
2022-10-18T10:49:41.056Z,17.63
2022-10-18T10:52:27.636Z,16.77
2022-10-18T10:57:48.578Z,18.15
2022-10-18T11:00:44.240Z,21.63
2022-10-18T11:03:34.530Z,16.00
2022-10-18T11:06:02.121Z,16.90
2022-10-18T11:08:39.828Z,20.83
2022-10-18T11:11:28.516Z,18.50
2022-10-18T11:14:29.635Z,20.88
2022-10-18T11:17:38.228Z,16.13
2022-10-18T11:20:10.754Z,15.57
2022-10-18T11:22:59.960Z,18.57
2022-10-18T11:25:59.195Z,17.13
2022-10-18T11:28:36.296Z,17.70
2022-10-18T11:31:45.286Z,16.97
2022-10-18T11:35:06.427Z,15.80
2022-10-18T11:38:15.218Z,17.37
2022-10-18T11:41:28.141Z,13.38
2022-10-18T11:44:04.194Z,14.00
2022-10-18T11:47:18.143Z,9.82
2022-10-18T11:50:26.154Z,12.60
2022-10-18T11:53:28.516Z,12.02
2022-10-18T11:56:19.527Z,13.55
2022-10-18T11:58:55.176Z,12.90
2022-10-18T12:01:52.959Z,12.57
2022-10-18T12:04:28.168Z,12.15
2022-10-18T12:06:56.502Z,11.27
2022-10-18T12:09:41.212Z,10.50
2022-10-18T12:12:27.694Z,9.10
2022-10-18T12:15:13.230Z,8.70
2022-10-18T12:17:53.356Z,10.32
2022-10-18T12:20:39.462Z,10.10
2022-10-18T12:23:29.942Z,11.53
2022-10-18T12:26:03.892Z,11.52
2022-10-18T12:29:31.882Z,12.35
2022-10-18T12:32:22.241Z,12.82
2022-10-18T12:35:04.484Z,11.13
2022-10-18T12:38:08.014Z,13.38
2022-10-18T12:40:49.578Z,14.15
2022-10-18T12:43:42.353Z,12.23
2022-10-18T12:46:13.771Z,12.57
2022-10-18T12:49:00.500Z,12.03
2022-10-18T12:51:31.835Z,11.82
2022-10-18T12:54:11.493Z,11.50
2022-10-18T12:56:43.703Z,11.80
2022-10-18T12:59:16.892Z,13.38
2022-10-18T13:02:22.480Z,13.40
2022-10-18T13:04:50.180Z,13.43
2022-10-18T13:07:40.981Z,10.02
2022-10-18T13:10:11.204Z,11.18
2022-10-18T13:13:29.531Z,8.43
2022-10-18T13:16:23.719Z,12.70
2022-10-18T13:19:18.972Z,11.32
2022-10-18T13:22:18.933Z,11.23
2022-10-18T13:25:14.179Z,11.50
2022-10-18T13:28:08.779Z,11.40
2022-10-18T13:31:12.011Z,11.82
2022-10-18T13:33:41.922Z,10.20
2022-10-18T13:36:22.711Z,10.23
2022-10-18T13:39:04.784Z,10.13
2022-10-18T13:41:41.897Z,10.68
2022-10-18T13:44:40.324Z,10.98
2022-10-18T13:47:14.581Z,10.55
2022-10-18T13:53:29.562Z,9.02
2022-10-18T13:56:08.275Z,7.30
2022-10-18T13:59:25.131Z,8.77
2022-10-18T14:02:51.435Z,8.43
2022-10-18T14:06:19.050Z,9.25
2022-10-18T14:09:09.349Z,10.15
2022-10-18T14:12:31.372Z,9.23
2022-10-18T14:15:26.032Z,10.48
2022-10-18T14:18:04.885Z,10.50
2022-10-18T14:21:01.304Z,10.10
2022-10-18T14:23:41.912Z,11.38
2022-10-18T14:26:20.900Z,12.05
2022-10-18T14:29:19.555Z,11.32
2022-10-18T14:31:54.367Z,11.82
2022-10-18T14:34:21.851Z,11.00
2022-10-18T14:36:50.289Z,11.48
2022-10-18T14:39:26.658Z,10.95
2022-10-18T14:41:57.130Z,11.20
2022-10-18T14:44:35.128Z,10.45
2022-10-18T14:47:14.836Z,10.43
2022-10-18T14:49:46.448Z,9.65
2022-10-18T14:52:26.382Z,7.82
2022-10-18T14:54:57.034Z,7.90
2022-10-18T14:57:36.159Z,8.05
2022-10-18T15:00:35.479Z,7.13
2022-10-18T15:03:21.148Z,9.82
2022-10-18T15:06:06.013Z,7.90
2022-10-18T15:08:40.537Z,7.70
2022-10-18T15:11:11.868Z,8.40
2022-10-18T15:14:08.802Z,9.18
2022-10-18T15:16:38.585Z,9.02
2022-10-18T15:19:34.767Z,10.38
2022-10-18T15:25:14.848Z,9.60
2022-10-18T15:27:58.374Z,9.23
2022-10-18T15:30:31.721Z,9.38
2022-10-18T15:33:11.978Z,9.85
2022-10-18T15:35:41.172Z,9.80
2022-10-18T15:38:33.463Z,9.77
2022-10-18T15:41:00.832Z,9.00
2022-10-18T15:43:27.725Z,10.88
2022-10-18T15:46:05.396Z,10.87
2022-10-18T15:48:43.400Z,8.43
2022-10-18T15:51:48.947Z,8.73
2022-10-18T15:54:29.264Z,8.40
2022-10-18T15:56:56.750Z,9.60
2022-10-18T15:59:31.089Z,8.87
2022-10-18T16:01:58.335Z,8.80
2022-10-18T16:04:33.060Z,8.63
2022-10-18T16:07:00.845Z,9.37
2022-10-18T16:09:29.200Z,9.87
2022-10-18T16:11:58.095Z,10.10
2022-10-18T16:14:26.444Z,9.37
2022-10-18T16:17:02.457Z,11.03
2022-10-18T16:19:30.981Z,12.37
2022-10-18T16:22:03.632Z,12.03
2022-10-18T16:24:33.197Z,12.30
2022-10-18T16:27:00.136Z,12.73
2022-10-18T16:29:31.824Z,13.07
2022-10-18T16:31:59.929Z,13.13
2022-10-18T16:34:27.377Z,12.93
2022-10-18T16:36:57.276Z,13.63
2022-10-18T16:39:25.056Z,13.80
2022-10-18T16:41:52.610Z,12.30
2022-10-18T16:44:19.714Z,15.83
2022-10-18T16:46:51.101Z,13.10
2022-10-18T16:49:25.021Z,14.33
2022-10-18T16:51:54.272Z,16.90
2022-10-18T16:54:21.820Z,15.83
2022-10-18T16:56:50.125Z,15.77
2022-10-18T16:59:35.371Z,16.30
2022-10-18T17:02:06.301Z,18.37
2022-10-18T17:04:33.270Z,16.60
2022-10-18T17:07:00.242Z,17.70
2022-10-18T17:09:28.578Z,17.57
2022-10-18T17:11:55.594Z,19.77
2022-10-18T17:14:22.531Z,18.37
2022-10-18T17:16:53.751Z,19.00
2022-10-18T17:19:23.248Z,17.40
2022-10-18T17:21:50.137Z,20.80
2022-10-18T17:24:17.109Z,21.27
2022-10-18T17:26:44.300Z,19.90
2022-10-18T17:29:11.327Z,20.07
2022-10-18T17:31:38.424Z,18.50
2022-10-18T17:34:05.406Z,14.40
2022-10-18T17:36:34.518Z,21.83
2022-10-18T17:39:01.882Z,19.20
2022-10-18T17:41:28.986Z,17.67
2022-10-18T17:43:55.916Z,18.37
2022-10-18T17:46:23.619Z,20.37
2022-10-18T17:48:50.617Z,19.50
2022-10-18T17:51:18.472Z,15.00
2022-10-18T17:53:45.825Z,18.43
2022-10-18T17:56:14.584Z,17.70
2022-10-18T17:58:45.592Z,11.33
2022-10-18T18:01:20.178Z,17.00
2022-10-18T18:03:50.599Z,14.50
2022-10-18T18:06:30.742Z,19.10
2022-10-18T18:08:59.998Z,15.87
2022-10-18T18:11:28.982Z,13.87
2022-10-18T18:13:56.438Z,13.83
2022-10-18T18:16:28.540Z,12.73
2022-10-18T18:18:58.231Z,18.53
2022-10-18T18:21:27.208Z,14.77
2022-10-18T18:23:55.051Z,7.97
2022-10-18T18:26:22.644Z,18.43
2022-10-18T18:28:49.983Z,17.00
2022-10-18T18:31:26.236Z,17.33
2022-10-18T18:33:57.286Z,19.23
2022-10-18T18:36:28.829Z,13.97
2022-10-18T18:38:57.735Z,13.17
2022-10-18T18:41:26.742Z,11.67
2022-10-18T18:44:02.467Z,11.13
2022-10-18T18:46:36.831Z,14.17
2022-10-18T18:49:05.266Z,16.10
2022-10-18T18:51:33.437Z,17.50
2022-10-18T18:54:00.807Z,12.00
2022-10-18T18:56:28.938Z,10.90
2022-10-18T18:58:59.122Z,13.17
2022-10-18T19:01:38.398Z,13.57
2022-10-18T19:04:09.152Z,11.63
2022-10-18T19:06:42.187Z,15.93
2022-10-18T19:09:19.594Z,10.67
2022-10-18T19:11:52.817Z,13.70
2022-10-18T19:16:58.903Z,12.40
2022-10-18T19:19:30.371Z,13.57
2022-10-18T19:22:04.897Z,11.97
2022-10-18T19:24:32.889Z,12.07
2022-10-18T19:27:05.297Z,8.97
2022-10-18T19:29:36.547Z,9.73
2022-10-18T19:32:08.715Z,10.53
2022-10-18T19:34:35.995Z,8.47
2022-10-18T19:37:03.894Z,7.57
2022-10-18T19:39:34.666Z,8.43
2022-10-18T19:42:06.776Z,9.03
2022-10-18T19:44:36.221Z,18.10
2022-10-18T19:47:06.439Z,18.47
2022-10-18T19:49:33.421Z,22.13
2022-10-18T19:52:00.370Z,23.30
2022-10-18T19:54:27.654Z,28.80
2022-10-18T19:56:54.824Z,25.00
2022-10-18T19:59:22.858Z,12.13
2022-10-18T20:01:50.352Z,10.30
2022-10-18T20:04:17.666Z,10.10
2022-10-18T20:06:44.817Z,7.90
2022-10-18T20:09:16.259Z,8.80
2022-10-18T20:11:46.545Z,7.33
2022-10-18T20:14:13.500Z,7.47
2022-10-18T20:16:40.680Z,7.87
2022-10-18T20:19:09.474Z,6.83
2022-10-18T20:21:36.889Z,6.43
2022-10-18T20:24:06.155Z,6.53
2022-10-18T20:26:34.491Z,5.93
2022-10-18T20:29:01.559Z,6.60
2022-10-18T20:31:32.228Z,6.40
2022-10-18T20:34:04.489Z,6.13
2022-10-18T20:36:33.391Z,6.00
2022-10-18T20:39:01.413Z,6.00
2022-10-18T20:41:40.925Z,4.10
2022-10-18T20:44:16.741Z,4.63
2022-10-18T20:46:44.298Z,4.57
2022-10-18T20:49:16.185Z,4.80
2022-10-18T20:51:43.472Z,4.30
2022-10-18T20:54:13.125Z,4.37
2022-10-18T20:56:40.316Z,4.97
2022-10-18T20:59:09.682Z,4.90
2022-10-18T21:01:38.705Z,4.10
2022-10-18T21:04:09.131Z,4.37
2022-10-18T21:06:45.183Z,4.70
2022-10-18T21:09:18.013Z,4.80
2022-10-18T21:11:50.112Z,4.57
2022-10-18T21:14:22.900Z,4.40
2022-10-18T21:16:51.896Z,4.10
2022-10-18T21:19:26.396Z,4.07
2022-10-18T21:21:57.139Z,4.00
2022-10-18T21:24:26.105Z,3.30
2022-10-18T21:26:53.526Z,3.70
2022-10-18T21:29:22.623Z,4.17
2022-10-18T21:31:53.518Z,4.27
2022-10-18T21:34:20.782Z,3.80
2022-10-18T21:36:48.684Z,4.50
2022-10-18T21:39:21.559Z,5.30
2022-10-18T21:41:49.381Z,4.40
2022-10-18T21:44:17.435Z,4.43
2022-10-18T21:46:45.082Z,4.37
2022-10-18T21:49:13.565Z,3.73
2022-10-18T21:51:41.613Z,4.40
2022-10-18T21:54:15.237Z,4.03
2022-10-18T21:56:42.919Z,3.63
2022-10-18T21:59:12.783Z,4.27
2022-10-18T22:01:40.555Z,3.70
2022-10-18T22:04:24.587Z,3.90
2022-10-18T22:06:52.250Z,3.57
2022-10-18T22:09:21.107Z,3.30
2022-10-18T22:11:53.470Z,3.27
2022-10-18T22:14:21.711Z,3.00
2022-10-18T22:16:48.721Z,2.80
2022-10-18T22:19:15.670Z,2.73
2022-10-18T22:21:42.572Z,2.67
2022-10-18T22:24:10.510Z,2.77
2022-10-18T22:26:41.693Z,2.20
2022-10-18T22:29:14.988Z,2.43
2022-10-18T22:31:49.543Z,2.53
2022-10-18T22:34:21.073Z,2.20
2022-10-18T22:36:48.047Z,2.30
2022-10-18T22:39:16.852Z,2.33
2022-10-18T22:41:44.354Z,2.57
2022-10-18T22:44:13.959Z,1.80
2022-10-18T22:46:42.208Z,2.93
2022-10-18T22:49:09.527Z,2.20
2022-10-18T22:51:36.473Z,2.23
2022-10-18T22:54:03.525Z,2.03
2022-10-18T22:56:30.489Z,1.97
2022-10-18T22:58:57.466Z,2.20
2022-10-18T23:01:25.164Z,2.10
2022-10-18T23:03:59.011Z,1.70
2022-10-18T23:06:32.825Z,2.13
2022-10-18T23:09:06.980Z,1.80
2022-10-18T23:11:35.697Z,2.33
2022-10-18T23:14:05.153Z,2.97
2022-10-18T23:16:32.438Z,2.00
2022-10-18T23:18:59.778Z,2.30
2022-10-18T23:21:28.491Z,1.87
2022-10-18T23:23:57.039Z,1.80
2022-10-18T23:26:27.519Z,2.20
2022-10-18T23:28:55.830Z,1.63
2022-10-18T23:31:31.740Z,2.70
2022-10-18T23:34:04.685Z,1.83
2022-10-18T23:36:33.841Z,2.10
2022-10-18T23:39:01.584Z,2.70
2022-10-18T23:41:28.632Z,2.27
2022-10-18T23:43:55.917Z,3.47
2022-10-18T23:46:23.026Z,2.77
2022-10-18T23:48:50.446Z,2.87
2022-10-18T23:51:18.256Z,3.00
2022-10-18T23:53:45.306Z,3.53
2022-10-18T23:56:16.212Z,3.00
2022-10-18T23:58:45.503Z,2.43
